This is the latest recevied weather packets stored in our database for station/object IK5UIK-3. If no packets are shown the sender has not sent any weather packets the latest 10 day(s).
| Time | Temp. | Humidity | Pressure | Rain* | Wind** | Luminosity | Snow |
|---|---|---|---|---|---|---|---|
| 1788168260 | 27.22° C | 68% | 1008.1 hPa | 0 mm | - | - | - |
| 1788167964 | 27.22° C | 69% | 1008.2 hPa | 0 mm | - | - | - |
| 1788167900 | 26.67° C | 69% | 1008.1 hPa | 0 mm | - | - | - |
| 1788167540 | 26.67° C | 69% | 1008.1 hPa | 0 mm | - | - | - |
| 1788167365 | 26.67° C | 68% | 1008.1 hPa | 0 mm | - | - | - |
| 1788167180 | 26.67° C | 68% | 1008.1 hPa | 0 mm | - | - | - |
| 1788167065 | 27.22° C | 69% | 1008.2 hPa | 0 mm | - | - | - |
| 1788166820 | 27.22° C | 69% | 1008.1 hPa | 0 mm | - | - | - |
| 1788166460 | 27.22° C | 70% | 1008.1 hPa | 0 mm | - | - | - |
| 1788166100 | 27.22° C | 69% | 1008.2 hPa | 0 mm | - | - | - |
| 1788165866 | 27.22° C | 69% | 1008.2 hPa | 0 mm | - | - | - |
| 1788165740 | 27.22° C | 71% | 1008.3 hPa | 0 mm | - | - | - |
| 1788165380 | 26.67° C | 72% | 1008.2 hPa | 0 mm | - | - | - |
| 1788165295 | 26.67° C | 72% | 1008.1 hPa | 0 mm | - | - | - |
| 1788165264 | 26.67° C | 72% | 1008.1 hPa | 0 mm | - | - | - |
| 1788165020 | 26.67° C | 72% | 1008.1 hPa | 0 mm | - | - | - |
| 1788164660 | 26.67° C | 72% | 1008.2 hPa | 0 mm | - | - | - |
| 1788164364 | 26.11° C | 73% | 1008 hPa | 0 mm | - | - | - |
| 1788164300 | 26.11° C | 73% | 1008.1 hPa | 0 mm | - | - | - |
| 1788164063 | 26.11° C | 74% | 1008.2 hPa | 0 mm | - | - | - |
| 1788163940 | 26.11° C | 74% | 1008.2 hPa | 0 mm | - | - | - |
| 1788163763 | 25.56° C | 75% | 1008.2 hPa | 0 mm | - | - | - |
| 1788163580 | 25.56° C | 75% | 1008.2 hPa | 0 mm | - | - | - |
| 1788163464 | 25.56° C | 75% | 1008.1 hPa | 0 mm | - | - | - |
| 1788163220 | 25° C | 76% | 1008 hPa | 0 mm | - | - | - |
* Rain latest hour (hover to see other rain measurements)
** Current wind speed in m/s (hover to see current wind gust speed)